ADDS METAR Data INFO
IDs: Format: Raw Decoded Include TAF

Data at: 1117 UTC 21 Feb 2018

PFWS 201456Z AUTO 00000KT 1/4SM FZFG OVC003 M01/M01 A3054 RMK AO2 SLP348 T10061006 51010 FZRANO
PFWS 201418Z AUTO 28004KT 1/4SM FG OVC003 00/00 A3054 RMK AO2 FZRANO
PFWS 201356Z AUTO 24004KT 1/2SM FG BKN003 OVC033 01/00 A3054 RMK AO2 SLP348 T00060000 FZRANO
PFWS 201256Z AUTO 26008KT 1/2SM FG OVC003 01/01 A3055 RMK AO2 SLP351 T00060006 FZRANO
PFWS 201220Z AUTO 24006KT 1/2SM FG OVC003 01/01 A3052 RMK AO2 FZRANO
PFWS 201208Z AUTO 23006KT 3/4SM BR OVC003 01/01 A3051 RMK AO2 FZRANO
PFWS 201156Z AUTO 22006KT 1SM BR OVC003 01/01 A3051 RMK AO2 UPE1057RAB1057E46 SLP338 P0000 60000 T00110011 10017 20011 53015 FZRANO
PFWS 201146Z AUTO 22005KT 1 1/4SM BR OVC003 01/01 A3051 RMK AO2 UPE1057RAB1057E46 P0000 FZRANO
PFWS 201128Z AUTO 23005KT 3/4SM -RA BR OVC003 01/01 A3050 RMK AO2 UPE1057RAB1057 P0000 FZRANO
PFWS 201052Z AUTO 23006KT 1SM UP BR OVC005 01/01 A3048 RMK AO2 UPE03B34 P0000 FZRANO
PFWS 201044Z AUTO 24006KT 1 1/4SM UP BR OVC005 01/01 A3048 RMK AO2 UPE03B34 P0000 FZRANO
PFWS 201034Z AUTO 24006KT 2 1/2SM UP BR BKN003 OVC008 01/01 A3048 RMK AO2 UPE03B34 P0000 FZRANO
PFWS 201024Z AUTO 24007KT 7SM OVC008 01/01 A3048 RMK AO2 UPE03 CIG 004V010 P0000 FZRANO
PFWS 200956Z AUTO 22008KT 9SM UP OVC010 01/01 A3047 RMK AO2 UPB46 CIG 006V012 SLP323 P0000 T00110011 FZRANO
PFWS 200947Z AUTO 22008KT 10SM UP BKN010 OVC016 01/01 A3046 RMK AO2 UPB46 CIG 006V013 P0000 FZRANO
PFWS 200927Z AUTO 21008KT 10SM BKN015 BKN032 OVC060 01/01 A3045 RMK AO2 FZRANO
PFWS 200856Z AUTO 19007KT 10SM SCT031 BKN041 OVC049 01/01 A3044 RMK AO2 RAE09 SLP315 P0000 60000 T00110011 400561061 51020 FZRANO
PFWS 200833Z AUTO 19006KT 10SM SCT020 OVC034 01/01 A3043 RMK AO2 RAE09 P0000 FZRANO
PFWS 200756Z AUTO 22010KT 10SM -RA SCT010 OVC020 02/01 A3043 RMK AO2 UPE23RAB45 SLP309 P0000 T00170011 FZRANO
PFWS 200713Z AUTO 21008KT 10SM UP BKN028 OVC038 02/01 A3042 RMK AO2 P0000 FZRANO
PFWS 200656Z AUTO 19009KT 10SM UP BKN037 OVC046 02/01 A3040 RMK AO2 UPB50 SLP301 P0000 T00170006 FZRANO
PFWS 200556Z AUTO 20007KT 10SM SCT043 OVC060 02/01 A3038 RMK AO2 SLP295 T00170006 10056 20017 51017 FZRANO
PFWS 200456Z AUTO 20009KT 10SM OVC060 02/01 A3037 RMK AO2 SLP292 T00220011 FZRANO
PFWS 200356Z AUTO 20008KT 10SM OVC075 02/01 A3035 RMK AO2 SLP282 T00220011 FZRANO
PFWS 200156Z AUTO 17009KT 10SM CLR 03/01 A3032 RMK AO2 SLP272 T00330011
PFWS 200056Z AUTO 18010KT 10SM OVC120 05/02 A3032 RMK AO2 SLP274 T00500017
PFWS 192356Z AUTO 16005KT 10SM SCT120 04/01 A3032 RMK AO2 SLP273 T00390006 10039 21061 55005